Listerhav — ZDKC7 — position and weather

sailwx.info

Track history (hours):
 
Tides and Currents Weather Stations Pressure Air Temp Water Temp Dewpoint Dewpoint Depression Visibility Wind Speed Wind Dir Waves Ship Positions

Listerhav

Last reported at 2015-Aug-30 15:28 UTC. Time now 2015-Aug-31 00:38 UTC.
Position N 56°28' E 010°03'.

Length 88 m; draft 5.8 m.

Type: Ship. MMSI: 236591000.

Date/timePositionNaut miles runAvg speedWind from/ knotsBaromVisibWave heightAir tempDewpointWater temp
2015-Aug-30 15:28N 56°28' E 010°03'2 2.0
2015-Aug-30 14:33N 56°28' E 010°07'5 4.7
2015-Aug-30 13:33N 56°30' E 010°14'60 7.4
2015-Aug-30 05:27N 56°19' E 011°60'7 8.3
2015-Aug-30 04:33N 56°16' E 012°12'8 8.0
2015-Aug-30 03:33N 56°11' E 012°23'8 8.0
2015-Aug-30 02:33N 56°06' E 012°35'7 7.2
2015-Aug-30 01:33N 55°60' E 012°41'7 7.4
2015-Aug-30 00:34N 55°53' E 012°44'8 7.8
2015-Aug-29 23:34N 55°45' E 012°42'8 7.5
2015-Aug-29 22:33N 55°37' E 012°42'7 7.3
2015-Aug-29 21:33N 55°30' E 012°43'9 8.8
2015-Aug-29 20:33N 55°21' E 012°41'8 7.6
2015-Aug-29 19:33N 55°16' E 012°52'8 8.3
2015-Aug-29 18:33N 55°16' E 013°06'8 8.3
2015-Aug-29 17:33N 55°15' E 013°21'8 8.3
2015-Aug-29 16:33N 55°15' E 013°35'8 8.2
2015-Aug-29 15:33N 55°14' E 013°50'9 8.7
2015-Aug-29 14:33N 55°14' E 014°05'8 8.2
2015-Aug-29 13:33N 55°16' E 014°19'9 8.9
2015-Aug-29 12:33N 55°23' E 014°29'9 8.8
2015-Aug-29 11:33N 55°28' E 014°41'9 8.6
2015-Aug-29 10:33N 55°32' E 014°54'9 8.7
2015-Aug-29 09:31N 55°37' E 015°08'  
2015-Aug-25 06:33N 57°15' E 019°10'1110.5
2015-Aug-25 05:33N 57°07' E 018°57'1110.6
2015-Aug-25 04:33N 56°59' E 018°45'1110.5
2015-Aug-25 03:33N 56°51' E 018°33'1010.4
2015-Aug-25 02:33N 56°44' E 018°19'1010.5
2015-Aug-25 01:33N 56°37' E 018°04'1010.5
2015-Aug-25 00:33N 56°30' E 017°49'1010.4
2015-Aug-24 23:33N 56°24' E 017°34'1010.4
2015-Aug-24 22:33N 56°18' E 017°19'1010.4
2015-Aug-24 21:33N 56°12' E 017°04'1010.2
2015-Aug-24 20:33N 56°06' E 016°49'10 9.9
2015-Aug-24 19:33N 56°01' E 016°34'10 9.7
2015-Aug-24 18:33N 56°00' E 016°17'13 9.6
2015-Aug-24 17:09N 55°59' E 015°53'8 9.0
2015-Aug-24 16:19N 56°00' E 015°39'7 9.5
2015-Aug-24 15:33N 56°02' E 015°27'9 9.5
2015-Aug-24 14:33N 56°04' E 015°10'10 9.6
2015-Aug-24 13:32N 56°08' E 014°54'2 2.4
2015-Aug-24 12:30N 56°10' E 014°52'0 0.0
2015-Aug-24 11:33N 56°10' E 014°52'0 0.0
2015-Aug-24 10:27N 56°10' E 014°52'0 0.0
2015-Aug-24 09:27N 56°10' E 014°52'0 0.0
2015-Aug-24 08:33N 56°10' E 014°52'0 0.0
2015-Aug-24 07:33N 56°10' E 014°52'0 0.0
2015-Aug-24 06:33N 56°10' E 014°52'0 0.0
2015-Aug-24 05:27N 56°10' E 014°52'0 0.0
2015-Aug-24 04:27N 56°10' E 014°52'0 0.0
2015-Aug-24 03:27N 56°10' E 014°52'0 0.0
2015-Aug-24 02:27N 56°10' E 014°52'0 0.0
2015-Aug-23 19:18N 56°10' E 014°52'0 0.0
2015-Aug-23 18:33N 56°10' E 014°52'0 0.0
2015-Aug-23 17:33N 56°10' E 014°52'0 0.0
2015-Aug-23 16:30N 56°10' E 014°52'0 0.0
2015-Aug-23 15:33N 56°10' E 014°52'0 0.0
2015-Aug-23 14:33N 56°10' E 014°52'0 0.0
2015-Aug-23 13:33N 56°10' E 014°52'0 0.0
2015-Aug-23 12:27N 56°10' E 014°52'0 0.0
2015-Aug-23 11:33N 56°10' E 014°52'0 0.0
2015-Aug-23 05:26N 56°10' E 014°52'0 0.0
2015-Aug-23 04:17N 56°10' E 014°52'0 0.0
2015-Aug-23 03:26N 56°10' E 014°52'0 0.0
2015-Aug-23 02:32N 56°10' E 014°52'0 0.0
2015-Aug-23 01:32N 56°10' E 014°52'0 0.0
2015-Aug-23 00:32N 56°10' E 014°52'0 0.0
2015-Aug-22 23:32N 56°10' E 014°52'0 0.0
2015-Aug-22 21:32N 56°10' E 014°52'0 0.0
2015-Aug-22 20:32N 56°10' E 014°52'0 0.0
2015-Aug-22 19:29N 56°10' E 014°52'0 0.0
2015-Aug-22 18:29N 56°10' E 014°52'0 0.0
2015-Aug-22 17:32N 56°10' E 014°52'0 0.0
2015-Aug-22 16:29N 56°10' E 014°52'0 0.0
2015-Aug-22 15:32N 56°10' E 014°52'0 0.0
2015-Aug-22 14:32N 56°10' E 014°52'0 0.0
2015-Aug-22 13:32N 56°10' E 014°52'0 0.0
2015-Aug-22 12:32N 56°10' E 014°52'0 0.0
2015-Aug-22 11:32N 56°10' E 014°52'0 0.0
2015-Aug-22 10:32N 56°10' E 014°52'0 0.0
2015-Aug-22 09:32N 56°10' E 014°52'0 0.0
2015-Aug-22 08:32N 56°10' E 014°52'0 0.0
2015-Aug-22 07:32N 56°10' E 014°52'0 0.0
2015-Aug-22 06:29N 56°10' E 014°52'0 0.0
2015-Aug-22 05:29N 56°10' E 014°52'0 0.0
2015-Aug-22 04:32N 56°10' E 014°52'0 0.0
2015-Aug-22 03:32N 56°10' E 014°52'0 0.0
2015-Aug-22 02:29N 56°10' E 014°52'0 0.0
2015-Aug-22 01:29N 56°10' E 014°52'0 0.0
2015-Aug-22 00:32N 56°10' E 014°52'0 0.0
2015-Aug-21 23:29N 56°10' E 014°52'0 0.0
2015-Aug-21 22:32N 56°10' E 014°52'0 0.0
2015-Aug-21 21:32N 56°10' E 014°52'0 0.0
2015-Aug-21 20:31N 56°10' E 014°52'0 0.0
2015-Aug-21 19:25N 56°10' E 014°52'0 0.0
2015-Aug-21 18:28N 56°10' E 014°52'0 0.0
2015-Aug-21 17:19N 56°10' E 014°52'0 0.0
2015-Aug-21 16:31N 56°10' E 014°52'0 0.0
2015-Aug-21 15:31N 56°10' E 014°52'0 0.0
2015-Aug-21 14:31N 56°10' E 014°52'0 0.0
2015-Aug-21 13:22N 56°10' E 014°52'0 0.0
2015-Aug-21 12:31N 56°10' E 014°52'0 0.0
2015-Aug-21 03:07N 56°10' E 014°52'0 0.0
2015-Aug-21 02:31N 56°10' E 014°52'0 0.0
2015-Aug-21 01:31N 56°10' E 014°52'0 0.0
2015-Aug-20 23:25N 56°10' E 014°52'0 0.0
2015-Aug-20 22:25N 56°10' E 014°52'0 0.0
2015-Aug-20 21:28N 56°10' E 014°52'0 0.0
2015-Aug-20 20:31N 56°10' E 014°52'0 0.0
2015-Aug-20 19:25N 56°10' E 014°52'0 0.0
2015-Aug-20 18:31N 56°10' E 014°52'0 0.0
2015-Aug-20 17:31N 56°10' E 014°52'0 0.0
2015-Aug-20 16:28N 56°10' E 014°52'0 0.0
2015-Aug-20 15:31N 56°10' E 014°52'  
Track history (hours):
 
Tides and Currents Weather Stations Pressure Air Temp Water Temp Dewpoint Dewpoint Depression Visibility Wind Speed Wind Dir Waves Ship Positions

Listerhav

Last reported at 2015-Aug-30 15:28 UTC. Time now 2015-Aug-31 00:38 UTC.
Position N 56°28' E 010°03'.

Length 88 m; draft 5.8 m.

Type: Ship. MMSI: 236591000.

Date/timePositionNaut miles runAvg speedWind from/ knotsBaromVisibWave heightAir tempDewpointWater temp
2015-Aug-30 15:28N 56°28' E 010°03'2 2.0
2015-Aug-30 14:33N 56°28' E 010°07'5 4.7
2015-Aug-30 13:33N 56°30' E 010°14'60 7.4
2015-Aug-30 05:27N 56°19' E 011°60'7 8.3
2015-Aug-30 04:33N 56°16' E 012°12'8 8.0
2015-Aug-30 03:33N 56°11' E 012°23'8 8.0
2015-Aug-30 02:33N 56°06' E 012°35'7 7.2
2015-Aug-30 01:33N 55°60' E 012°41'7 7.4
2015-Aug-30 00:34N 55°53' E 012°44'8 7.8
2015-Aug-29 23:34N 55°45' E 012°42'8 7.5
2015-Aug-29 22:33N 55°37' E 012°42'7 7.3
2015-Aug-29 21:33N 55°30' E 012°43'9 8.8
2015-Aug-29 20:33N 55°21' E 012°41'8 7.6
2015-Aug-29 19:33N 55°16' E 012°52'8 8.3
2015-Aug-29 18:33N 55°16' E 013°06'8 8.3
2015-Aug-29 17:33N 55°15' E 013°21'8 8.3
2015-Aug-29 16:33N 55°15' E 013°35'8 8.2
2015-Aug-29 15:33N 55°14' E 013°50'9 8.7
2015-Aug-29 14:33N 55°14' E 014°05'8 8.2
2015-Aug-29 13:33N 55°16' E 014°19'9 8.9
2015-Aug-29 12:33N 55°23' E 014°29'9 8.8
2015-Aug-29 11:33N 55°28' E 014°41'9 8.6
2015-Aug-29 10:33N 55°32' E 014°54'9 8.7
2015-Aug-29 09:31N 55°37' E 015°08'  
2015-Aug-25 06:33N 57°15' E 019°10'1110.5
2015-Aug-25 05:33N 57°07' E 018°57'1110.6
2015-Aug-25 04:33N 56°59' E 018°45'1110.5
2015-Aug-25 03:33N 56°51' E 018°33'1010.4
2015-Aug-25 02:33N 56°44' E 018°19'1010.5
2015-Aug-25 01:33N 56°37' E 018°04'1010.5
2015-Aug-25 00:33N 56°30' E 017°49'1010.4
2015-Aug-24 23:33N 56°24' E 017°34'1010.4
2015-Aug-24 22:33N 56°18' E 017°19'1010.4
2015-Aug-24 21:33N 56°12' E 017°04'1010.2
2015-Aug-24 20:33N 56°06' E 016°49'10 9.9
2015-Aug-24 19:33N 56°01' E 016°34'10 9.7
2015-Aug-24 18:33N 56°00' E 016°17'13 9.6
2015-Aug-24 17:09N 55°59' E 015°53'8 9.0
2015-Aug-24 16:19N 56°00' E 015°39'7 9.5
2015-Aug-24 15:33N 56°02' E 015°27'9 9.5
2015-Aug-24 14:33N 56°04' E 015°10'10 9.6
2015-Aug-24 13:32N 56°08' E 014°54'2 2.4
2015-Aug-24 12:30N 56°10' E 014°52'0 0.0
2015-Aug-24 11:33N 56°10' E 014°52'0 0.0
2015-Aug-24 10:27N 56°10' E 014°52'0 0.0
2015-Aug-24 09:27N 56°10' E 014°52'0 0.0
2015-Aug-24 08:33N 56°10' E 014°52'0 0.0
2015-Aug-24 07:33N 56°10' E 014°52'0 0.0
2015-Aug-24 06:33N 56°10' E 014°52'0 0.0
2015-Aug-24 05:27N 56°10' E 014°52'0 0.0
2015-Aug-24 04:27N 56°10' E 014°52'0 0.0
2015-Aug-24 03:27N 56°10' E 014°52'0 0.0
2015-Aug-24 02:27N 56°10' E 014°52'0 0.0
2015-Aug-23 19:18N 56°10' E 014°52'0 0.0
2015-Aug-23 18:33N 56°10' E 014°52'0 0.0
2015-Aug-23 17:33N 56°10' E 014°52'0 0.0
2015-Aug-23 16:30N 56°10' E 014°52'0 0.0
2015-Aug-23 15:33N 56°10' E 014°52'0 0.0
2015-Aug-23 14:33N 56°10' E 014°52'0 0.0
2015-Aug-23 13:33N 56°10' E 014°52'0 0.0
2015-Aug-23 12:27N 56°10' E 014°52'0 0.0
2015-Aug-23 11:33N 56°10' E 014°52'0 0.0
2015-Aug-23 05:26N 56°10' E 014°52'0 0.0
2015-Aug-23 04:17N 56°10' E 014°52'0 0.0
2015-Aug-23 03:26N 56°10' E 014°52'0 0.0
2015-Aug-23 02:32N 56°10' E 014°52'0 0.0
2015-Aug-23 01:32N 56°10' E 014°52'0 0.0
2015-Aug-23 00:32N 56°10' E 014°52'0 0.0
2015-Aug-22 23:32N 56°10' E 014°52'0 0.0
2015-Aug-22 21:32N 56°10' E 014°52'0 0.0
2015-Aug-22 20:32N 56°10' E 014°52'0 0.0
2015-Aug-22 19:29N 56°10' E 014°52'0 0.0
2015-Aug-22 18:29N 56°10' E 014°52'0 0.0
2015-Aug-22 17:32N 56°10' E 014°52'0 0.0
2015-Aug-22 16:29N 56°10' E 014°52'0 0.0
2015-Aug-22 15:32N 56°10' E 014°52'0 0.0
2015-Aug-22 14:32N 56°10' E 014°52'0 0.0
2015-Aug-22 13:32N 56°10' E 014°52'0 0.0
2015-Aug-22 12:32N 56°10' E 014°52'0 0.0
2015-Aug-22 11:32N 56°10' E 014°52'0 0.0
2015-Aug-22 10:32N 56°10' E 014°52'0 0.0
2015-Aug-22 09:32N 56°10' E 014°52'0 0.0
2015-Aug-22 08:32N 56°10' E 014°52'0 0.0
2015-Aug-22 07:32N 56°10' E 014°52'0 0.0
2015-Aug-22 06:29N 56°10' E 014°52'0 0.0
2015-Aug-22 05:29N 56°10' E 014°52'0 0.0
2015-Aug-22 04:32N 56°10' E 014°52'0 0.0
2015-Aug-22 03:32N 56°10' E 014°52'0 0.0
2015-Aug-22 02:29N 56°10' E 014°52'0 0.0
2015-Aug-22 01:29N 56°10' E 014°52'0 0.0
2015-Aug-22 00:32N 56°10' E 014°52'0 0.0
2015-Aug-21 23:29N 56°10' E 014°52'0 0.0
2015-Aug-21 22:32N 56°10' E 014°52'0 0.0
2015-Aug-21 21:32N 56°10' E 014°52'0 0.0
2015-Aug-21 20:31N 56°10' E 014°52'0 0.0
2015-Aug-21 19:25N 56°10' E 014°52'0 0.0
2015-Aug-21 18:28N 56°10' E 014°52'0 0.0
2015-Aug-21 17:19N 56°10' E 014°52'0 0.0
2015-Aug-21 16:31N 56°10' E 014°52'0 0.0
2015-Aug-21 15:31N 56°10' E 014°52'0 0.0
2015-Aug-21 14:31N 56°10' E 014°52'0 0.0
2015-Aug-21 13:22N 56°10' E 014°52'0 0.0
2015-Aug-21 12:31N 56°10' E 014°52'0 0.0
2015-Aug-21 03:07N 56°10' E 014°52'0 0.0
2015-Aug-21 02:31N 56°10' E 014°52'0 0.0
2015-Aug-21 01:31N 56°10' E 014°52'0 0.0
2015-Aug-20 23:25N 56°10' E 014°52'0 0.0
2015-Aug-20 22:25N 56°10' E 014°52'0 0.0
2015-Aug-20 21:28N 56°10' E 014°52'0 0.0
2015-Aug-20 20:31N 56°10' E 014°52'0 0.0
2015-Aug-20 19:25N 56°10' E 014°52'0 0.0
2015-Aug-20 18:31N 56°10' E 014°52'0 0.0
2015-Aug-20 17:31N 56°10' E 014°52'0 0.0
2015-Aug-20 16:28N 56°10' E 014°52'0 0.0
2015-Aug-20 15:31N 56°10' E 014°52'  

Dump ship's entire track history